sensor_id;sensor_type;location;lat;lon;timestamp;P1;durP1;ratioP1;P2;durP2;ratioP2
27857;SDS011;16852;51.446;6.528;2023-05-07T00:01:52;4.40;;;3.05;;
27857;SDS011;16852;51.446;6.528;2023-05-07T00:03:53;7.93;;;3.88;;
27857;SDS011;16852;51.446;6.528;2023-05-07T00:05:53;5.40;;;3.30;;
27857;SDS011;16852;51.446;6.528;2023-05-07T00:07:54;5.28;;;3.60;;
27857;SDS011;16852;51.446;6.528;2023-05-07T00:09:55;4.20;;;3.33;;
27857;SDS011;16852;51.446;6.528;2023-05-07T00:11:55;5.03;;;3.45;;
27857;SDS011;16852;51.446;6.528;2023-05-07T00:13:56;3.90;;;3.08;;
27857;SDS011;16852;51.446;6.528;2023-05-07T00:15:56;3.38;;;2.90;;
27857;SDS011;16852;51.446;6.528;2023-05-07T00:17:57;4.47;;;2.97;;
27857;SDS011;16852;51.446;6.528;2023-05-07T00:19:59;4.72;;;2.90;;
27857;SDS011;16852;51.446;6.528;2023-05-07T00:22:00;3.80;;;2.80;;
27857;SDS011;16852;51.446;6.528;2023-05-07T00:24:00;5.65;;;3.30;;
27857;SDS011;16852;51.446;6.528;2023-05-07T00:26:01;4.13;;;3.47;;
27857;SDS011;16852;51.446;6.528;2023-05-07T00:28:01;5.65;;;3.33;;
27857;SDS011;16852;51.446;6.528;2023-05-07T00:30:03;5.00;;;3.43;;
27857;SDS011;16852;51.446;6.528;2023-05-07T00:32:04;5.15;;;3.58;;
27857;SDS011;16852;51.446;6.528;2023-05-07T00:34:05;5.43;;;3.78;;
27857;SDS011;16852;51.446;6.528;2023-05-07T00:36:06;4.45;;;3.40;;
27857;SDS011;16852;51.446;6.528;2023-05-07T00:38:07;4.57;;;3.53;;
27857;SDS011;16852;51.446;6.528;2023-05-07T00:40:08;4.53;;;3.63;;
27857;SDS011;16852;51.446;6.528;2023-05-07T00:42:09;4.70;;;3.70;;
27857;SDS011;16852;51.446;6.528;2023-05-07T00:44:10;5.80;;;3.47;;
27857;SDS011;16852;51.446;6.528;2023-05-07T00:46:10;4.15;;;3.05;;
27857;SDS011;16852;51.446;6.528;2023-05-07T00:48:12;4.85;;;3.60;;
27857;SDS011;16852;51.446;6.528;2023-05-07T00:50:13;3.85;;;3.13;;
27857;SDS011;16852;51.446;6.528;2023-05-07T00:52:14;4.10;;;3.20;;
27857;SDS011;16852;51.446;6.528;2023-05-07T00:56:17;3.60;;;2.83;;
27857;SDS011;16852;51.446;6.528;2023-05-07T00:58:17;3.53;;;3.15;;
27857;SDS011;16852;51.446;6.528;2023-05-07T01:00:19;6.57;;;3.95;;
27857;SDS011;16852;51.446;6.528;2023-05-07T01:02:21;6.82;;;4.53;;
27857;SDS011;16852;51.446;6.528;2023-05-07T01:04:21;5.35;;;4.15;;
27857;SDS011;16852;51.446;6.528;2023-05-07T01:06:22;4.32;;;3.72;;
27857;SDS011;16852;51.446;6.528;2023-05-07T01:08:25;5.35;;;4.20;;
27857;SDS011;16852;51.446;6.528;2023-05-07T01:10:29;4.00;;;3.60;;
27857;SDS011;16852;51.446;6.528;2023-05-07T01:12:30;6.18;;;3.90;;
27857;SDS011;16852;51.446;6.528;2023-05-07T01:14:31;5.63;;;3.88;;
27857;SDS011;16852;51.446;6.528;2023-05-07T01:16:33;5.45;;;3.80;;
27857;SDS011;16852;51.446;6.528;2023-05-07T01:18:33;4.75;;;3.53;;
27857;SDS011;16852;51.446;6.528;2023-05-07T01:20:34;5.65;;;3.78;;
27857;SDS011;16852;51.446;6.528;2023-05-07T01:22:35;4.63;;;3.78;;
27857;SDS011;16852;51.446;6.528;2023-05-07T01:24:40;6.22;;;4.38;;
27857;SDS011;16852;51.446;6.528;2023-05-07T01:26:42;5.30;;;3.80;;
27857;SDS011;16852;51.446;6.528;2023-05-07T01:28:44;5.45;;;3.58;;
27857;SDS011;16852;51.446;6.528;2023-05-07T01:30:49;5.10;;;3.90;;
27857;SDS011;16852;51.446;6.528;2023-05-07T01:32:59;4.03;;;3.60;;
27857;SDS011;16852;51.446;6.528;2023-05-07T01:35:11;5.57;;;3.67;;
27857;SDS011;16852;51.446;6.528;2023-05-07T01:37:14;4.68;;;3.63;;
27857;SDS011;16852;51.446;6.528;2023-05-07T01:39:15;6.70;;;4.10;;
27857;SDS011;16852;51.446;6.528;2023-05-07T01:41:16;7.32;;;4.30;;
27857;SDS011;16852;51.446;6.528;2023-05-07T01:43:16;5.55;;;4.03;;
27857;SDS011;16852;51.446;6.528;2023-05-07T01:45:17;5.50;;;3.92;;
27857;SDS011;16852;51.446;6.528;2023-05-07T01:47:18;5.35;;;3.88;;
27857;SDS011;16852;51.446;6.528;2023-05-07T01:49:20;4.43;;;3.42;;
27857;SDS011;16852;51.446;6.528;2023-05-07T01:51:21;3.28;;;2.90;;
27857;SDS011;16852;51.446;6.528;2023-05-07T01:53:22;4.03;;;3.40;;
27857;SDS011;16852;51.446;6.528;2023-05-07T01:55:22;4.75;;;3.58;;
27857;SDS011;16852;51.446;6.528;2023-05-07T01:57:23;5.72;;;3.42;;
27857;SDS011;16852;51.446;6.528;2023-05-07T01:59:24;6.45;;;3.60;;
27857;SDS011;16852;51.446;6.528;2023-05-07T02:01:25;5.63;;;3.53;;
27857;SDS011;16852;51.446;6.528;2023-05-07T02:03:25;4.40;;;3.35;;
27857;SDS011;16852;51.446;6.528;2023-05-07T02:05:26;4.65;;;3.10;;
27857;SDS011;16852;51.446;6.528;2023-05-07T02:07:27;4.78;;;3.70;;
27857;SDS011;16852;51.446;6.528;2023-05-07T02:09:28;6.65;;;4.20;;
27857;SDS011;16852;51.446;6.528;2023-05-07T02:11:28;6.90;;;4.07;;
27857;SDS011;16852;51.446;6.528;2023-05-07T02:13:29;5.65;;;4.18;;
27857;SDS011;16852;51.446;6.528;2023-05-07T02:15:32;5.70;;;4.53;;
27857;SDS011;16852;51.446;6.528;2023-05-07T02:17:33;4.47;;;4.05;;
27857;SDS011;16852;51.446;6.528;2023-05-07T02:19:33;6.28;;;5.00;;
27857;SDS011;16852;51.446;6.528;2023-05-07T02:21:35;8.20;;;5.30;;
27857;SDS011;16852;51.446;6.528;2023-05-07T02:23:35;7.13;;;5.22;;
27857;SDS011;16852;51.446;6.528;2023-05-07T02:25:36;6.95;;;5.63;;
27857;SDS011;16852;51.446;6.528;2023-05-07T02:27:36;9.43;;;6.38;;
27857;SDS011;16852;51.446;6.528;2023-05-07T02:29:37;7.20;;;5.47;;
27857;SDS011;16852;51.446;6.528;2023-05-07T02:31:37;9.70;;;6.57;;
27857;SDS011;16852;51.446;6.528;2023-05-07T02:33:38;7.80;;;5.80;;
27857;SDS011;16852;51.446;6.528;2023-05-07T02:35:39;6.93;;;5.43;;
27857;SDS011;16852;51.446;6.528;2023-05-07T02:37:39;8.50;;;6.47;;
27857;SDS011;16852;51.446;6.528;2023-05-07T02:39:40;9.00;;;5.95;;
27857;SDS011;16852;51.446;6.528;2023-05-07T02:41:40;8.10;;;6.45;;
27857;SDS011;16852;51.446;6.528;2023-05-07T02:43:41;9.65;;;6.28;;
27857;SDS011;16852;51.446;6.528;2023-05-07T02:45:41;10.38;;;6.85;;
27857;SDS011;16852;51.446;6.528;2023-05-07T02:47:43;8.50;;;5.95;;
27857;SDS011;16852;51.446;6.528;2023-05-07T02:49:43;8.07;;;5.80;;
27857;SDS011;16852;51.446;6.528;2023-05-07T02:51:44;6.78;;;5.43;;
27857;SDS011;16852;51.446;6.528;2023-05-07T02:53:45;7.60;;;5.32;;
27857;SDS011;16852;51.446;6.528;2023-05-07T02:55:45;10.65;;;5.38;;
27857;SDS011;16852;51.446;6.528;2023-05-07T02:57:46;11.32;;;6.05;;
27857;SDS011;16852;51.446;6.528;2023-05-07T02:59:47;7.72;;;5.70;;
27857;SDS011;16852;51.446;6.528;2023-05-07T03:01:47;7.40;;;5.70;;
27857;SDS011;16852;51.446;6.528;2023-05-07T03:03:48;7.35;;;5.72;;
27857;SDS011;16852;51.446;6.528;2023-05-07T03:05:48;8.88;;;6.07;;
27857;SDS011;16852;51.446;6.528;2023-05-07T03:07:49;6.03;;;4.57;;
27857;SDS011;16852;51.446;6.528;2023-05-07T03:09:50;7.28;;;5.00;;
27857;SDS011;16852;51.446;6.528;2023-05-07T03:11:51;7.85;;;5.30;;
27857;SDS011;16852;51.446;6.528;2023-05-07T03:13:51;8.40;;;5.53;;
27857;SDS011;16852;51.446;6.528;2023-05-07T03:15:52;6.15;;;4.88;;
27857;SDS011;16852;51.446;6.528;2023-05-07T03:17:52;9.88;;;5.93;;
27857;SDS011;16852;51.446;6.528;2023-05-07T03:19:53;8.55;;;5.63;;
27857;SDS011;16852;51.446;6.528;2023-05-07T03:21:54;7.28;;;5.32;;
27857;SDS011;16852;51.446;6.528;2023-05-07T03:23:55;8.07;;;6.10;;
27857;SDS011;16852;51.446;6.528;2023-05-07T03:25:56;11.18;;;6.00;;
27857;SDS011;16852;51.446;6.528;2023-05-07T03:27:56;6.88;;;4.93;;
27857;SDS011;16852;51.446;6.528;2023-05-07T03:29:57;5.90;;;4.80;;
27857;SDS011;16852;51.446;6.528;2023-05-07T03:31:58;6.47;;;5.03;;
27857;SDS011;16852;51.446;6.528;2023-05-07T03:33:58;5.78;;;4.78;;
27857;SDS011;16852;51.446;6.528;2023-05-07T03:35:59;8.90;;;5.68;;
27857;SDS011;16852;51.446;6.528;2023-05-07T03:37:59;7.20;;;5.22;;
27857;SDS011;16852;51.446;6.528;2023-05-07T03:40:01;8.13;;;5.00;;
27857;SDS011;16852;51.446;6.528;2023-05-07T03:42:02;6.60;;;4.72;;
27857;SDS011;16852;51.446;6.528;2023-05-07T03:44:03;6.53;;;5.03;;
27857;SDS011;16852;51.446;6.528;2023-05-07T03:46:04;6.60;;;4.60;;
27857;SDS011;16852;51.446;6.528;2023-05-07T03:48:04;7.40;;;5.85;;
27857;SDS011;16852;51.446;6.528;2023-05-07T03:50:05;8.10;;;5.57;;
27857;SDS011;16852;51.446;6.528;2023-05-07T03:52:06;6.85;;;5.10;;
27857;SDS011;16852;51.446;6.528;2023-05-07T03:54:07;6.32;;;4.68;;
27857;SDS011;16852;51.446;6.528;2023-05-07T03:56:07;8.27;;;6.15;;
27857;SDS011;16852;51.446;6.528;2023-05-07T03:58:08;9.25;;;6.60;;
27857;SDS011;16852;51.446;6.528;2023-05-07T04:00:09;7.15;;;5.95;;
27857;SDS011;16852;51.446;6.528;2023-05-07T04:02:10;9.95;;;6.43;;
27857;SDS011;16852;51.446;6.528;2023-05-07T04:04:10;8.93;;;6.50;;
27857;SDS011;16852;51.446;6.528;2023-05-07T04:06:11;8.80;;;6.50;;
27857;SDS011;16852;51.446;6.528;2023-05-07T04:08:12;9.23;;;6.65;;
27857;SDS011;16852;51.446;6.528;2023-05-07T04:10:12;10.38;;;7.18;;
27857;SDS011;16852;51.446;6.528;2023-05-07T04:12:13;8.80;;;6.82;;
27857;SDS011;16852;51.446;6.528;2023-05-07T04:14:15;9.85;;;7.40;;
27857;SDS011;16852;51.446;6.528;2023-05-07T04:16:15;9.52;;;6.95;;
27857;SDS011;16852;51.446;6.528;2023-05-07T04:18:16;8.73;;;6.35;;
27857;SDS011;16852;51.446;6.528;2023-05-07T04:20:16;8.32;;;6.15;;
27857;SDS011;16852;51.446;6.528;2023-05-07T04:22:17;8.57;;;6.50;;
27857;SDS011;16852;51.446;6.528;2023-05-07T04:24:18;7.78;;;5.75;;
27857;SDS011;16852;51.446;6.528;2023-05-07T04:26:18;7.13;;;5.88;;
27857;SDS011;16852;51.446;6.528;2023-05-07T04:28:21;6.47;;;5.38;;
27857;SDS011;16852;51.446;6.528;2023-05-07T04:30:21;6.72;;;5.15;;
27857;SDS011;16852;51.446;6.528;2023-05-07T04:32:22;7.00;;;5.70;;
27857;SDS011;16852;51.446;6.528;2023-05-07T04:34:24;7.18;;;5.57;;
27857;SDS011;16852;51.446;6.528;2023-05-07T04:36:25;7.00;;;5.43;;
27857;SDS011;16852;51.446;6.528;2023-05-07T04:38:29;7.72;;;5.63;;
27857;SDS011;16852;51.446;6.528;2023-05-07T04:40:31;7.78;;;6.00;;
27857;SDS011;16852;51.446;6.528;2023-05-07T04:42:31;7.30;;;5.43;;
27857;SDS011;16852;51.446;6.528;2023-05-07T04:44:32;6.10;;;5.15;;
27857;SDS011;16852;51.446;6.528;2023-05-07T04:46:32;6.35;;;5.22;;
27857;SDS011;16852;51.446;6.528;2023-05-07T04:48:33;7.05;;;5.70;;
27857;SDS011;16852;51.446;6.528;2023-05-07T04:50:34;8.02;;;6.07;;
27857;SDS011;16852;51.446;6.528;2023-05-07T04:52:34;9.10;;;6.95;;
27857;SDS011;16852;51.446;6.528;2023-05-07T04:54:35;8.25;;;5.63;;
27857;SDS011;16852;51.446;6.528;2023-05-07T04:56:36;7.30;;;5.82;;
27857;SDS011;16852;51.446;6.528;2023-05-07T04:58:36;8.07;;;5.38;;
27857;SDS011;16852;51.446;6.528;2023-05-07T05:00:37;7.65;;;5.85;;
27857;SDS011;16852;51.446;6.528;2023-05-07T05:02:39;9.25;;;6.43;;
27857;SDS011;16852;51.446;6.528;2023-05-07T05:04:40;11.35;;;6.97;;
27857;SDS011;16852;51.446;6.528;2023-05-07T05:06:41;8.65;;;6.22;;
27857;SDS011;16852;51.446;6.528;2023-05-07T05:08:42;9.80;;;7.00;;
27857;SDS011;16852;51.446;6.528;2023-05-07T05:10:42;9.98;;;7.38;;
27857;SDS011;16852;51.446;6.528;2023-05-07T05:12:43;8.18;;;6.38;;
27857;SDS011;16852;51.446;6.528;2023-05-07T05:14:44;8.27;;;6.20;;
27857;SDS011;16852;51.446;6.528;2023-05-07T05:16:44;9.20;;;6.47;;
27857;SDS011;16852;51.446;6.528;2023-05-07T05:18:45;7.75;;;5.95;;
27857;SDS011;16852;51.446;6.528;2023-05-07T05:20:46;7.82;;;5.78;;
27857;SDS011;16852;51.446;6.528;2023-05-07T05:22:46;10.98;;;6.85;;
27857;SDS011;16852;51.446;6.528;2023-05-07T05:24:47;8.32;;;5.95;;
27857;SDS011;16852;51.446;6.528;2023-05-07T05:26:48;8.02;;;6.22;;
27857;SDS011;16852;51.446;6.528;2023-05-07T05:28:48;9.38;;;6.47;;
27857;SDS011;16852;51.446;6.528;2023-05-07T05:30:49;8.52;;;6.22;;
27857;SDS011;16852;51.446;6.528;2023-05-07T05:32:50;7.82;;;5.90;;
27857;SDS011;16852;51.446;6.528;2023-05-07T05:34:50;8.75;;;6.68;;
27857;SDS011;16852;51.446;6.528;2023-05-07T05:36:51;8.93;;;6.45;;
27857;SDS011;16852;51.446;6.528;2023-05-07T05:38:51;6.78;;;5.70;;
27857;SDS011;16852;51.446;6.528;2023-05-07T05:40:52;8.63;;;6.15;;
27857;SDS011;16852;51.446;6.528;2023-05-07T05:42:54;8.60;;;6.43;;
27857;SDS011;16852;51.446;6.528;2023-05-07T05:44:54;8.07;;;5.88;;
27857;SDS011;16852;51.446;6.528;2023-05-07T05:46:55;14.15;;;6.80;;
27857;SDS011;16852;51.446;6.528;2023-05-07T05:48:57;9.02;;;6.53;;
27857;SDS011;16852;51.446;6.528;2023-05-07T05:50:58;9.45;;;6.97;;
27857;SDS011;16852;51.446;6.528;2023-05-07T05:52:58;8.05;;;6.13;;
27857;SDS011;16852;51.446;6.528;2023-05-07T05:54:59;6.55;;;5.03;;
27857;SDS011;16852;51.446;6.528;2023-05-07T05:56:59;5.68;;;4.45;;
27857;SDS011;16852;51.446;6.528;2023-05-07T05:59:00;6.95;;;4.13;;
27857;SDS011;16852;51.446;6.528;2023-05-07T06:01:00;4.85;;;3.28;;
27857;SDS011;16852;51.446;6.528;2023-05-07T06:03:02;7.20;;;3.00;;
27857;SDS011;16852;51.446;6.528;2023-05-07T06:05:03;6.63;;;3.95;;
27857;SDS011;16852;51.446;6.528;2023-05-07T06:07:04;4.53;;;3.20;;
27857;SDS011;16852;51.446;6.528;2023-05-07T06:09:05;4.68;;;2.97;;
27857;SDS011;16852;51.446;6.528;2023-05-07T06:11:05;3.78;;;2.58;;
27857;SDS011;16852;51.446;6.528;2023-05-07T06:13:07;4.25;;;2.83;;
27857;SDS011;16852;51.446;6.528;2023-05-07T06:15:08;5.25;;;3.03;;
27857;SDS011;16852;51.446;6.528;2023-05-07T06:17:08;4.25;;;3.00;;
27857;SDS011;16852;51.446;6.528;2023-05-07T06:19:09;5.15;;;2.53;;
27857;SDS011;16852;51.446;6.528;2023-05-07T06:21:10;4.95;;;2.85;;
27857;SDS011;16852;51.446;6.528;2023-05-07T06:23:10;5.75;;;3.00;;
27857;SDS011;16852;51.446;6.528;2023-05-07T06:25:11;6.05;;;3.03;;
27857;SDS011;16852;51.446;6.528;2023-05-07T06:27:12;5.22;;;2.58;;
27857;SDS011;16852;51.446;6.528;2023-05-07T06:29:12;4.20;;;3.10;;
27857;SDS011;16852;51.446;6.528;2023-05-07T06:31:16;4.30;;;2.67;;
27857;SDS011;16852;51.446;6.528;2023-05-07T06:33:20;5.55;;;3.30;;
27857;SDS011;16852;51.446;6.528;2023-05-07T06:35:20;5.53;;;2.92;;
27857;SDS011;16852;51.446;6.528;2023-05-07T06:37:21;4.57;;;3.40;;
27857;SDS011;16852;51.446;6.528;2023-05-07T06:39:22;5.95;;;3.33;;
27857;SDS011;16852;51.446;6.528;2023-05-07T06:41:22;6.95;;;4.15;;
27857;SDS011;16852;51.446;6.528;2023-05-07T06:43:23;5.65;;;3.60;;
27857;SDS011;16852;51.446;6.528;2023-05-07T06:45:23;4.75;;;3.35;;
27857;SDS011;16852;51.446;6.528;2023-05-07T06:47:25;6.60;;;3.88;;
27857;SDS011;16852;51.446;6.528;2023-05-07T06:49:25;5.38;;;3.97;;
27857;SDS011;16852;51.446;6.528;2023-05-07T06:51:26;7.35;;;4.45;;
27857;SDS011;16852;51.446;6.528;2023-05-07T06:53:26;9.25;;;5.03;;
27857;SDS011;16852;51.446;6.528;2023-05-07T06:55:29;7.68;;;4.53;;
27857;SDS011;16852;51.446;6.528;2023-05-07T06:57:29;6.18;;;3.90;;
27857;SDS011;16852;51.446;6.528;2023-05-07T06:59:30;5.63;;;3.80;;
27857;SDS011;16852;51.446;6.528;2023-05-07T07:01:30;5.28;;;3.70;;
27857;SDS011;16852;51.446;6.528;2023-05-07T07:03:31;6.32;;;3.97;;
27857;SDS011;16852;51.446;6.528;2023-05-07T07:05:31;8.07;;;4.28;;
27857;SDS011;16852;51.446;6.528;2023-05-07T07:07:32;6.05;;;4.20;;
27857;SDS011;16852;51.446;6.528;2023-05-07T07:09:33;6.05;;;4.07;;
27857;SDS011;16852;51.446;6.528;2023-05-07T07:11:33;5.65;;;4.03;;
27857;SDS011;16852;51.446;6.528;2023-05-07T07:13:34;6.07;;;3.95;;
27857;SDS011;16852;51.446;6.528;2023-05-07T07:15:34;8.77;;;4.75;;
27857;SDS011;16852;51.446;6.528;2023-05-07T07:17:35;6.53;;;4.35;;
27857;SDS011;16852;51.446;6.528;2023-05-07T07:19:35;7.47;;;4.40;;
27857;SDS011;16852;51.446;6.528;2023-05-07T07:21:37;5.82;;;4.57;;
27857;SDS011;16852;51.446;6.528;2023-05-07T07:23:38;8.45;;;4.38;;
27857;SDS011;16852;51.446;6.528;2023-05-07T07:25:38;6.13;;;4.07;;
27857;SDS011;16852;51.446;6.528;2023-05-07T07:27:39;5.85;;;3.97;;
27857;SDS011;16852;51.446;6.528;2023-05-07T07:29:40;7.38;;;4.28;;
27857;SDS011;16852;51.446;6.528;2023-05-07T07:31:40;5.30;;;3.30;;
27857;SDS011;16852;51.446;6.528;2023-05-07T07:33:41;5.50;;;3.55;;
27857;SDS011;16852;51.446;6.528;2023-05-07T07:35:42;6.18;;;3.67;;
27857;SDS011;16852;51.446;6.528;2023-05-07T07:37:42;6.43;;;3.55;;
27857;SDS011;16852;51.446;6.528;2023-05-07T07:39:43;5.90;;;3.75;;
27857;SDS011;16852;51.446;6.528;2023-05-07T07:41:43;6.93;;;3.30;;
27857;SDS011;16852;51.446;6.528;2023-05-07T07:43:44;6.78;;;3.67;;
27857;SDS011;16852;51.446;6.528;2023-05-07T07:45:46;6.82;;;3.20;;
27857;SDS011;16852;51.446;6.528;2023-05-07T07:47:47;7.32;;;3.65;;
27857;SDS011;16852;51.446;6.528;2023-05-07T07:49:47;5.78;;;3.17;;
27857;SDS011;16852;51.446;6.528;2023-05-07T07:51:48;4.97;;;3.05;;
27857;SDS011;16852;51.446;6.528;2023-05-07T07:53:48;8.38;;;4.15;;
27857;SDS011;16852;51.446;6.528;2023-05-07T07:55:49;5.72;;;3.63;;
27857;SDS011;16852;51.446;6.528;2023-05-07T07:57:50;6.45;;;3.67;;
27857;SDS011;16852;51.446;6.528;2023-05-07T07:59:51;5.43;;;2.90;;
27857;SDS011;16852;51.446;6.528;2023-05-07T08:01:51;6.25;;;3.53;;
27857;SDS011;16852;51.446;6.528;2023-05-07T08:03:55;6.43;;;3.85;;
27857;SDS011;16852;51.446;6.528;2023-05-07T08:05:57;5.72;;;2.97;;
27857;SDS011;16852;51.446;6.528;2023-05-07T08:07:58;5.32;;;3.08;;
27857;SDS011;16852;51.446;6.528;2023-05-07T08:09:58;6.75;;;3.53;;
27857;SDS011;16852;51.446;6.528;2023-05-07T08:11:59;6.63;;;3.17;;
27857;SDS011;16852;51.446;6.528;2023-05-07T08:14:01;4.57;;;3.13;;
27857;SDS011;16852;51.446;6.528;2023-05-07T08:16:01;4.70;;;2.72;;
27857;SDS011;16852;51.446;6.528;2023-05-07T08:18:02;9.35;;;4.13;;
27857;SDS011;16852;51.446;6.528;2023-05-07T08:20:03;5.32;;;2.95;;
27857;SDS011;16852;51.446;6.528;2023-05-07T08:22:04;4.95;;;2.72;;
27857;SDS011;16852;51.446;6.528;2023-05-07T08:24:05;5.85;;;2.78;;
27857;SDS011;16852;51.446;6.528;2023-05-07T08:26:08;5.00;;;3.03;;
27857;SDS011;16852;51.446;6.528;2023-05-07T08:28:09;5.63;;;3.08;;
27857;SDS011;16852;51.446;6.528;2023-05-07T08:30:09;5.03;;;3.20;;
27857;SDS011;16852;51.446;6.528;2023-05-07T08:32:10;5.18;;;2.72;;
27857;SDS011;16852;51.446;6.528;2023-05-07T08:34:11;4.32;;;2.50;;
27857;SDS011;16852;51.446;6.528;2023-05-07T08:36:11;6.00;;;3.30;;
27857;SDS011;16852;51.446;6.528;2023-05-07T08:38:12;4.75;;;2.85;;
27857;SDS011;16852;51.446;6.528;2023-05-07T08:40:13;5.88;;;3.17;;
27857;SDS011;16852;51.446;6.528;2023-05-07T08:42:13;5.50;;;2.72;;
27857;SDS011;16852;51.446;6.528;2023-05-07T08:44:16;4.20;;;2.63;;
27857;SDS011;16852;51.446;6.528;2023-05-07T08:46:22;4.43;;;3.05;;
27857;SDS011;16852;51.446;6.528;2023-05-07T08:48:25;10.65;;;2.60;;
27857;SDS011;16852;51.446;6.528;2023-05-07T08:50:27;6.15;;;3.22;;
27857;SDS011;16852;51.446;6.528;2023-05-07T08:52:28;2.72;;;2.42;;
27857;SDS011;16852;51.446;6.528;2023-05-07T08:54:28;3.20;;;2.40;;
27857;SDS011;16852;51.446;6.528;2023-05-07T08:56:30;5.38;;;2.58;;
27857;SDS011;16852;51.446;6.528;2023-05-07T08:58:31;4.15;;;2.58;;
27857;SDS011;16852;51.446;6.528;2023-05-07T09:00:31;4.80;;;2.75;;
27857;SDS011;16852;51.446;6.528;2023-05-07T09:02:33;4.70;;;2.92;;
27857;SDS011;16852;51.446;6.528;2023-05-07T09:04:35;5.05;;;2.85;;
27857;SDS011;16852;51.446;6.528;2023-05-07T09:06:35;5.15;;;2.88;;
27857;SDS011;16852;51.446;6.528;2023-05-07T09:08:38;4.25;;;2.45;;
27857;SDS011;16852;51.446;6.528;2023-05-07T09:10:38;8.70;;;3.95;;
27857;SDS011;16852;51.446;6.528;2023-05-07T09:12:39;6.70;;;4.13;;
27857;SDS011;16852;51.446;6.528;2023-05-07T09:14:40;5.10;;;3.15;;
27857;SDS011;16852;51.446;6.528;2023-05-07T09:16:40;6.00;;;3.33;;
27857;SDS011;16852;51.446;6.528;2023-05-07T09:18:41;7.32;;;3.60;;
27857;SDS011;16852;51.446;6.528;2023-05-07T09:20:43;4.67;;;3.20;;
27857;SDS011;16852;51.446;6.528;2023-05-07T09:22:43;7.00;;;2.80;;
27857;SDS011;16852;51.446;6.528;2023-05-07T09:24:48;4.05;;;2.63;;
27857;SDS011;16852;51.446;6.528;2023-05-07T09:26:49;4.13;;;2.42;;
27857;SDS011;16852;51.446;6.528;2023-05-07T09:28:50;4.43;;;2.55;;
27857;SDS011;16852;51.446;6.528;2023-05-07T09:30:51;5.78;;;3.03;;
27857;SDS011;16852;51.446;6.528;2023-05-07T09:32:51;7.82;;;3.13;;
27857;SDS011;16852;51.446;6.528;2023-05-07T09:34:53;4.75;;;2.65;;
27857;SDS011;16852;51.446;6.528;2023-05-07T09:36:54;4.30;;;2.17;;
27857;SDS011;16852;51.446;6.528;2023-05-07T09:38:55;5.15;;;2.58;;
27857;SDS011;16852;51.446;6.528;2023-05-07T09:41:06;4.88;;;2.88;;
27857;SDS011;16852;51.446;6.528;2023-05-07T09:43:10;2.53;;;1.73;;
27857;SDS011;16852;51.446;6.528;2023-05-07T09:45:12;5.30;;;2.97;;
27857;SDS011;16852;51.446;6.528;2023-05-07T09:47:14;4.20;;;2.65;;
27857;SDS011;16852;51.446;6.528;2023-05-07T09:49:22;5.20;;;2.63;;
27857;SDS011;16852;51.446;6.528;2023-05-07T09:51:25;5.32;;;2.83;;
27857;SDS011;16852;51.446;6.528;2023-05-07T09:53:30;6.07;;;3.63;;
27857;SDS011;16852;51.446;6.528;2023-05-07T09:55:31;9.27;;;3.85;;
27857;SDS011;16852;51.446;6.528;2023-05-07T09:57:32;5.72;;;3.40;;
27857;SDS011;16852;51.446;6.528;2023-05-07T09:59:33;7.10;;;3.40;;
27857;SDS011;16852;51.446;6.528;2023-05-07T10:01:36;5.05;;;2.70;;
27857;SDS011;16852;51.446;6.528;2023-05-07T10:03:41;4.00;;;2.33;;
27857;SDS011;16852;51.446;6.528;2023-05-07T10:05:42;4.45;;;2.60;;
27857;SDS011;16852;51.446;6.528;2023-05-07T10:07:44;4.18;;;2.38;;
27857;SDS011;16852;51.446;6.528;2023-05-07T10:09:45;2.92;;;2.05;;
27857;SDS011;16852;51.446;6.528;2023-05-07T10:11:48;2.47;;;2.08;;
27857;SDS011;16852;51.446;6.528;2023-05-07T10:13:49;3.28;;;1.85;;
27857;SDS011;16852;51.446;6.528;2023-05-07T10:15:52;4.53;;;2.40;;
27857;SDS011;16852;51.446;6.528;2023-05-07T10:17:53;2.75;;;2.00;;
27857;SDS011;16852;51.446;6.528;2023-05-07T10:19:55;3.40;;;2.33;;
27857;SDS011;16852;51.446;6.528;2023-05-07T10:21:57;3.35;;;1.90;;
27857;SDS011;16852;51.446;6.528;2023-05-07T10:26:13;3.30;;;1.83;;
27857;SDS011;16852;51.446;6.528;2023-05-07T10:28:15;3.47;;;1.70;;
27857;SDS011;16852;51.446;6.528;2023-05-07T10:30:31;3.05;;;2.00;;
27857;SDS011;16852;51.446;6.528;2023-05-07T10:34:42;3.00;;;1.98;;
27857;SDS011;16852;51.446;6.528;2023-05-07T10:36:45;4.10;;;2.75;;
27857;SDS011;16852;51.446;6.528;2023-05-07T10:38:46;4.30;;;2.90;;
27857;SDS011;16852;51.446;6.528;2023-05-07T10:40:47;11.63;;;4.63;;
27857;SDS011;16852;51.446;6.528;2023-05-07T10:42:54;7.63;;;3.72;;
27857;SDS011;16852;51.446;6.528;2023-05-07T10:45:11;4.28;;;2.55;;
27857;SDS011;16852;51.446;6.528;2023-05-07T10:47:15;4.03;;;2.03;;
27857;SDS011;16852;51.446;6.528;2023-05-07T10:49:18;3.78;;;2.00;;
27857;SDS011;16852;51.446;6.528;2023-05-07T10:51:19;2.63;;;1.80;;
27857;SDS011;16852;51.446;6.528;2023-05-07T10:53:22;3.28;;;1.83;;
27857;SDS011;16852;51.446;6.528;2023-05-07T10:55:24;2.95;;;1.58;;
27857;SDS011;16852;51.446;6.528;2023-05-07T10:59:32;2.35;;;1.35;;
27857;SDS011;16852;51.446;6.528;2023-05-07T11:01:50;4.68;;;1.48;;
27857;SDS011;16852;51.446;6.528;2023-05-07T11:06:13;2.00;;;1.10;;
27857;SDS011;16852;51.446;6.528;2023-05-07T11:08:16;2.33;;;1.38;;
27857;SDS011;16852;51.446;6.528;2023-05-07T11:10:16;2.15;;;1.45;;
27857;SDS011;16852;51.446;6.528;2023-05-07T11:12:18;3.65;;;1.25;;
27857;SDS011;16852;51.446;6.528;2023-05-07T11:14:44;3.25;;;1.60;;
27857;SDS011;16852;51.446;6.528;2023-05-07T11:16:45;2.22;;;1.48;;
27857;SDS011;16852;51.446;6.528;2023-05-07T11:18:47;3.15;;;1.85;;
27857;SDS011;16852;51.446;6.528;2023-05-07T11:20:50;3.67;;;1.85;;
27857;SDS011;16852;51.446;6.528;2023-05-07T11:22:51;2.10;;;1.60;;
27857;SDS011;16852;51.446;6.528;2023-05-07T11:24:53;2.60;;;1.97;;
27857;SDS011;16852;51.446;6.528;2023-05-07T11:26:54;4.88;;;2.47;;
27857;SDS011;16852;51.446;6.528;2023-05-07T11:28:55;4.95;;;2.28;;
27857;SDS011;16852;51.446;6.528;2023-05-07T11:30:57;3.72;;;1.90;;
27857;SDS011;16852;51.446;6.528;2023-05-07T11:32:58;3.53;;;1.85;;
27857;SDS011;16852;51.446;6.528;2023-05-07T11:34:59;4.03;;;1.88;;
27857;SDS011;16852;51.446;6.528;2023-05-07T11:37:00;2.30;;;1.50;;
27857;SDS011;16852;51.446;6.528;2023-05-07T11:39:01;4.03;;;2.25;;
27857;SDS011;16852;51.446;6.528;2023-05-07T11:41:02;3.05;;;1.80;;
27857;SDS011;16852;51.446;6.528;2023-05-07T11:43:10;3.22;;;1.88;;
27857;SDS011;16852;51.446;6.528;2023-05-07T11:45:11;2.80;;;1.55;;
27857;SDS011;16852;51.446;6.528;2023-05-07T11:47:16;2.55;;;1.60;;
27857;SDS011;16852;51.446;6.528;2023-05-07T11:49:18;3.58;;;1.60;;
27857;SDS011;16852;51.446;6.528;2023-05-07T11:51:24;2.67;;;1.42;;
27857;SDS011;16852;51.446;6.528;2023-05-07T11:53:28;3.53;;;1.58;;
27857;SDS011;16852;51.446;6.528;2023-05-07T11:55:36;3.55;;;1.98;;
27857;SDS011;16852;51.446;6.528;2023-05-07T11:57:37;2.20;;;1.50;;
27857;SDS011;16852;51.446;6.528;2023-05-07T11:59:38;3.60;;;2.00;;
27857;SDS011;16852;51.446;6.528;2023-05-07T12:03:41;3.85;;;1.60;;
27857;SDS011;16852;51.446;6.528;2023-05-07T12:05:42;2.47;;;1.83;;
27857;SDS011;16852;51.446;6.528;2023-05-07T12:07:44;3.15;;;1.60;;
27857;SDS011;16852;51.446;6.528;2023-05-07T12:09:45;1.88;;;1.55;;
27857;SDS011;16852;51.446;6.528;2023-05-07T12:11:47;3.00;;;1.23;;
27857;SDS011;16852;51.446;6.528;2023-05-07T12:13:49;2.95;;;1.65;;
27857;SDS011;16852;51.446;6.528;2023-05-07T12:15:52;2.28;;;1.40;;
27857;SDS011;16852;51.446;6.528;2023-05-07T12:17:54;3.55;;;1.23;;
27857;SDS011;16852;51.446;6.528;2023-05-07T12:19:55;2.15;;;1.27;;
27857;SDS011;16852;51.446;6.528;2023-05-07T12:21:56;1.88;;;1.40;;
27857;SDS011;16852;51.446;6.528;2023-05-07T12:23:57;2.40;;;1.40;;
27857;SDS011;16852;51.446;6.528;2023-05-07T12:25:58;3.08;;;1.60;;